Time;durP1;ratioP1;P1;durP2;ratioP2;P2;SDS_P1;SDS_P2;PMS_P1;PMS_P2;Temp;Humidity;BMP_temperature;BMP_pressure;BME280_temperature;BME280_humidity;BME280_pressure;Samples;Min_cycle;Max_cycle;Signal;HPM_P1;HPM_P2
2022/07/20 00:00:34;;;;;;;5.20;4.33;;;22.20;68.30;;;;;;5064901;28;20198;-46
2022/07/20 00:03:03;;;;;;;6.33;4.40;;;22.20;68.40;;;;;;5060686;28;20202;-43
2022/07/20 00:05:30;;;;;;;6.17;4.30;;;22.20;68.40;;;;;;5064506;28;20222;-49
2022/07/20 00:07:57;;;;;;;6.27;4.40;;;22.30;68.20;;;;;;5060883;28;20203;-46
2022/07/20 00:13:09;;;;;;;4.77;4.30;;;22.30;68.10;;;;;;5043790;28;20968;-44
2022/07/20 00:15:37;;;;;;;6.13;4.30;;;22.30;68.20;;;;;;5064342;28;20420;-48
2022/07/20 00:18:04;;;;;;;5.43;4.40;;;22.30;68.10;;;;;;5060499;28;20846;-44
2022/07/20 00:20:31;;;;;;;5.10;4.00;;;22.40;68.00;;;;;;5064534;28;20194;-49
2022/07/20 00:22:58;;;;;;;5.40;4.57;;;22.40;68.10;;;;;;5060428;28;20281;-49
2022/07/20 00:25:25;;;;;;;5.10;4.30;;;22.40;67.90;;;;;;5064111;28;20218;-45
2022/07/20 00:27:53;;;;;;;4.73;3.70;;;22.40;67.90;;;;;;5043727;28;20218;-47
2022/07/20 00:30:20;;;;;;;6.00;4.43;;;22.40;67.90;;;;;;5063050;28;20218;-47
2022/07/20 00:32:48;;;;;;;4.80;4.40;;;22.40;67.90;;;;;;5062525;28;20210;-48
2022/07/20 00:35:16;;;;;;;5.33;4.33;;;22.40;68.00;;;;;;5061747;28;20993;-44
2022/07/20 00:37:45;;;;;;;6.37;4.50;;;22.40;68.20;;;;;;5063204;28;20202;-45
2022/07/20 00:40:14;;;;;;;5.33;4.30;;;22.40;68.40;;;;;;5061573;28;20194;-48
2022/07/20 00:42:42;;;;;;;5.20;4.30;;;22.40;68.50;;;;;;5060779;28;20202;-47
2022/07/20 00:45:10;;;;;;;4.80;4.30;;;22.30;68.60;;;;;;5047830;28;20195;-48
2022/07/20 00:47:37;;;;;;;4.70;4.30;;;22.30;68.80;;;;;;5064082;28;20199;-49
2022/07/20 00:50:08;;;;;;;5.00;4.50;;;22.30;69.10;;;;;;5059636;28;21008;-44
2022/07/20 00:52:35;;;;;;;5.77;3.73;;;22.20;69.10;;;;;;5063779;28;20230;-44
2022/07/20 00:55:01;;;;;;;6.43;4.33;;;22.20;69.10;;;;;;5059443;28;20875;-47
2022/07/20 00:57:29;;;;;;;4.87;4.47;;;22.20;69.40;;;;;;5062896;28;20201;-44
2022/07/20 00:59:56;;;;;;;6.70;4.60;;;22.20;69.70;;;;;;5043028;28;20206;-45
2022/07/20 01:02:23;;;;;;;5.10;4.60;;;22.10;69.80;;;;;;5063350;28;20269;-49
2022/07/20 01:04:49;;;;;;;7.17;4.47;;;22.10;69.80;;;;;;5061180;28;20198;-50
2022/07/20 01:07:18;;;;;;;4.83;4.07;;;22.10;69.90;;;;;;5061553;28;20252;-49
2022/07/20 01:09:45;;;;;;;5.70;4.27;;;22.10;70.20;;;;;;5062351;28;20715;-47
2022/07/20 01:12:12;;;;;;;6.17;3.90;;;22.10;70.30;;;;;;5060920;28;20191;-48
2022/07/20 01:14:40;;;;;;;4.80;4.30;;;22.00;70.50;;;;;;5062683;28;20241;-51
2022/07/20 01:17:07;;;;;;;5.97;4.00;;;22.00;70.60;;;;;;5044774;28;20222;-47
2022/07/20 01:19:34;;;;;;;5.73;4.93;;;22.00;70.90;;;;;;5063555;28;20202;-46
2022/07/20 01:22:01;;;;;;;5.00;4.50;;;22.00;70.80;;;;;;5059236;28;20256;-51
2022/07/20 01:24:29;;;;;;;6.17;4.87;;;22.00;70.80;;;;;;5062760;28;20201;-47
2022/07/20 01:26:56;;;;;;;4.70;4.30;;;22.00;71.00;;;;;;5058883;28;20226;-48
2022/07/20 01:29:23;;;;;;;4.33;3.93;;;22.00;71.10;;;;;;5062821;28;20214;-49
2022/07/20 01:31:49;;;;;;;4.93;4.47;;;22.00;71.20;;;;;;5043906;28;20221;-47
2022/07/20 01:34:16;;;;;;;4.70;4.20;;;22.00;71.40;;;;;;5061036;28;20756;-47
2022/07/20 01:36:43;;;;;;;5.43;4.87;;;21.90;71.50;;;;;;5062627;28;20691;-47
2022/07/20 01:39:11;;;;;;;4.87;4.47;;;22.00;71.50;;;;;;5060028;28;20194;-48
2022/07/20 01:41:38;;;;;;;8.00;4.60;;;22.00;71.40;;;;;;5062989;28;20574;-51
2022/07/20 01:44:06;;;;;;;4.50;4.10;;;21.90;71.50;;;;;;5058828;28;20206;-45
2022/07/20 01:46:33;;;;;;;4.80;4.40;;;22.00;71.60;;;;;;5045948;28;20225;-47
2022/07/20 01:49:00;;;;;;;5.87;4.73;;;21.90;71.70;;;;;;5058592;28;20790;-49
2022/07/20 01:51:27;;;;;;;4.33;3.93;;;21.90;71.90;;;;;;5062996;28;20203;-49
2022/07/20 01:53:54;;;;;;;5.73;4.23;;;21.90;71.90;;;;;;5059561;28;20206;-46
2022/07/20 01:56:22;;;;;;;7.53;4.80;;;21.90;72.00;;;;;;5062155;28;20214;-48
2022/07/20 01:58:49;;;;;;;4.87;4.40;;;21.90;72.00;;;;;;5061170;28;20201;-50
2022/07/20 02:01:15;;;;;;;4.83;4.30;;;21.90;72.00;;;;;;5059995;28;20183;-44
2022/07/20 02:03:42;;;;;;;4.83;4.30;;;21.90;72.40;;;;;;5044743;28;20206;-47
2022/07/20 02:06:09;;;;;;;6.13;4.47;;;21.90;72.50;;;;;;5059659;28;20929;-44
2022/07/20 02:08:37;;;;;;;7.87;4.60;;;21.80;72.70;;;;;;5063881;28;20202;-45
2022/07/20 02:11:05;;;;;;;7.83;4.50;;;21.80;72.90;;;;;;5063038;28;20213;-44
2022/07/20 02:13:35;;;;;;;5.20;4.70;;;21.80;73.10;;;;;;5066644;28;20228;-47
2022/07/20 02:16:17;;;;;;;5.03;4.33;;;21.80;73.20;;;;;;5062475;28;20914;-51
2022/07/20 02:18:46;;;;;;;6.73;4.87;;;21.80;73.40;;;;;;5048806;28;20221;-50
2022/07/20 02:21:13;;;;;;;5.03;4.50;;;21.70;73.50;;;;;;5064229;28;20205;-47
2022/07/20 02:23:40;;;;;;;5.23;4.73;;;21.70;73.80;;;;;;5066442;28;20202;-49
2022/07/20 02:26:07;;;;;;;7.33;4.33;;;21.70;73.90;;;;;;5063042;28;20221;-51
2022/07/20 02:28:37;;;;;;;5.27;4.77;;;21.60;74.30;;;;;;5066815;28;20198;-45
2022/07/20 02:31:03;;;;;;;5.60;4.50;;;21.60;74.60;;;;;;5062042;28;20214;-44
2022/07/20 02:33:30;;;;;;;4.73;4.30;;;21.50;74.80;;;;;;5049238;28;20210;-45
2022/07/20 02:35:57;;;;;;;5.03;4.53;;;21.50;75.10;;;;;;5062490;28;20234;-46
2022/07/20 02:38:25;;;;;;;7.43;4.43;;;21.50;75.20;;;;;;5065624;28;20634;-44
2022/07/20 02:40:51;;;;;;;7.47;4.87;;;21.40;75.50;;;;;;5063896;28;20206;-47
2022/07/20 02:43:18;;;;;;;4.87;4.43;;;21.40;75.80;;;;;;5064586;28;20205;-45
2022/07/20 02:45:47;;;;;;;5.17;4.73;;;21.40;76.20;;;;;;5064668;28;20215;-47
2022/07/20 02:48:14;;;;;;;5.37;4.90;;;21.40;76.40;;;;;;5046941;28;20224;-47
2022/07/20 02:50:42;;;;;;;4.90;4.50;;;21.30;76.60;;;;;;5065616;28;20225;-45
2022/07/20 02:53:11;;;;;;;11.20;5.00;;;21.30;76.80;;;;;;5062763;28;20198;-48
2022/07/20 02:55:38;;;;;;;9.93;5.03;;;21.30;77.00;;;;;;5066287;28;20225;-43
2022/07/20 02:58:06;;;;;;;5.30;4.83;;;21.30;77.20;;;;;;5062696;28;20190;-44
2022/07/20 03:00:33;;;;;;;5.53;4.40;;;21.20;77.50;;;;;;5065506;28;20673;-44
2022/07/20 03:03:02;;;;;;;6.70;4.53;;;21.20;77.80;;;;;;5044642;28;21492;-46
2022/07/20 03:05:29;;;;;;;6.93;4.70;;;21.20;78.00;;;;;;5065210;28;20700;-46
2022/07/20 03:07:56;;;;;;;6.67;3.93;;;21.20;78.20;;;;;;5061440;28;20202;-45
2022/07/20 03:10:23;;;;;;;6.43;4.67;;;21.10;78.30;;;;;;5065369;28;20317;-49
2022/07/20 03:12:50;;;;;;;5.27;4.77;;;21.10;78.50;;;;;;5063761;28;20559;-48
2022/07/20 03:15:17;;;;;;;7.20;5.03;;;21.10;78.70;;;;;;5063449;28;20248;-46
2022/07/20 03:17:46;;;;;;;5.07;4.67;;;21.10;79.20;;;;;;5064871;28;20195;-44
2022/07/20 03:20:18;;;;;;;5.37;4.87;;;21.00;79.60;;;;;;5046558;28;20194;-48
2022/07/20 03:22:45;;;;;;;4.97;4.47;;;21.00;79.80;;;;;;5064007;28;20194;-48
2022/07/20 03:25:13;;;;;;;4.73;4.23;;;21.00;79.90;;;;;;5095409;28;20345;-50
2022/07/20 03:27:40;;;;;;;7.47;4.87;;;21.00;80.00;;;;;;5065495;28;20202;-46
2022/07/20 03:30:09;;;;;;;5.53;4.30;;;21.00;80.20;;;;;;5062125;28;20242;-46
2022/07/20 03:32:36;;;;;;;5.23;4.67;;;21.00;80.30;;;;;;5065457;28;20248;-50
2022/07/20 03:35:03;;;;;;;6.20;5.10;;;21.00;80.60;;;;;;5043878;28;20232;-49
2022/07/20 03:37:32;;;;;;;6.27;4.40;;;21.00;80.70;;;;;;5065185;28;20206;-47
2022/07/20 03:39:59;;;;;;;5.30;4.80;;;20.90;80.90;;;;;;5060864;28;20225;-46
2022/07/20 03:42:26;;;;;;;5.40;4.53;;;21.00;81.20;;;;;;5065225;28;20294;-45
2022/07/20 03:44:52;;;;;;;6.03;4.83;;;20.90;81.40;;;;;;5061646;28;20191;-48
2022/07/20 03:47:19;;;;;;;6.27;4.73;;;20.90;81.70;;;;;;5063551;28;20198;-43
2022/07/20 03:49:46;;;;;;;6.73;4.60;;;20.90;81.90;;;;;;5057306;28;20562;-49
2022/07/20 03:52:12;;;;;;;8.07;4.70;;;20.90;82.70;;;;;;5052910;28;20909;-46
2022/07/20 03:54:41;;;;;;;6.73;4.40;;;20.90;82.30;;;;;;5064505;28;20210;-48
2022/07/20 03:57:08;;;;;;;9.23;4.60;;;20.90;82.70;;;;;;5061569;28;20307;-47
2022/07/20 03:59:35;;;;;;;6.83;4.63;;;20.80;83.00;;;;;;5064874;28;20199;-46
2022/07/20 04:02:03;;;;;;;6.80;4.70;;;20.80;83.30;;;;;;5060658;28;20186;-49
2022/07/20 04:04:30;;;;;;;10.90;4.50;;;20.80;83.40;;;;;;5064284;28;20191;-45
2022/07/20 04:06:57;;;;;;;7.53;4.67;;;20.80;83.60;;;;;;5043711;28;20227;-45
2022/07/20 04:12:08;;;;;;;5.67;4.67;;;20.80;84.10;;;;;;5060582;28;20222;-44
2022/07/20 04:14:35;;;;;;;6.30;4.70;;;20.80;84.10;;;;;;5064185;28;20203;-45
2022/07/20 04:17:02;;;;;;;5.70;4.70;;;20.80;84.10;;;;;;5056060;28;20293;-47
2022/07/20 04:19:30;;;;;;;5.03;4.53;;;20.80;84.50;;;;;;5064147;28;20202;-45
2022/07/20 04:21:58;;;;;;;7.83;5.00;;;20.90;84.70;;;;;;5046572;28;20199;-47
2022/07/20 04:24:25;;;;;;;5.10;4.57;;;20.90;84.90;;;;;;5058309;28;20195;-46
2022/07/20 04:26:53;;;;;;;5.37;4.83;;;20.80;85.80;;;;;;5061860;28;20718;-46
2022/07/20 04:29:22;;;;;;;9.10;4.13;;;20.90;85.40;;;;;;5063317;28;20210;-49
2022/07/20 04:31:49;;;;;;;5.40;4.37;;;20.90;85.50;;;;;;5060445;28;20218;-51
2022/07/20 04:34:16;;;;;;;5.93;4.47;;;20.90;85.50;;;;;;5061905;28;20194;-43
2022/07/20 04:36:43;;;;;;;4.80;4.40;;;20.90;85.80;;;;;;5063326;28;20219;-46
2022/07/20 04:39:09;;;;;;;5.83;5.30;;;20.90;86.40;;;;;;5076214;27;20195;-45
2022/07/20 04:41:36;;;;;;;5.73;4.87;;;20.90;87.10;;;;;;5063801;28;20206;-47
2022/07/20 04:44:04;;;;;;;4.90;4.40;;;20.90;87.50;;;;;;5059574;28;20201;-46
2022/07/20 04:46:32;;;;;;;6.17;4.70;;;20.90;87.80;;;;;;5063446;28;20726;-45
2022/07/20 04:48:59;;;;;;;5.03;4.50;;;20.90;88.00;;;;;;5059912;28;20199;-44
2022/07/20 04:51:26;;;;;;;5.30;4.00;;;20.90;87.80;;;;;;5064062;28;20246;-46
2022/07/20 04:53:53;;;;;;;6.97;4.57;;;21.00;87.90;;;;;;5049063;28;20217;-46
2022/07/20 04:56:20;;;;;;;6.07;4.97;;;21.00;88.20;;;;;;5058146;28;20226;-46
2022/07/20 04:58:50;;;;;;;7.57;5.03;;;21.00;88.20;;;;;;5060892;28;20203;-48
2022/07/20 05:01:17;;;;;;;5.03;4.50;;;21.10;88.30;;;;;;5062063;28;20199;-44
2022/07/20 05:03:45;;;;;;;7.03;4.80;;;21.10;88.30;;;;;;5062133;28;20202;-48
2022/07/20 05:06:12;;;;;;;5.40;4.87;;;21.10;88.60;;;;;;5061003;28;20210;-48
2022/07/20 05:08:39;;;;;;;7.53;4.70;;;21.10;88.80;;;;;;5063424;28;20206;-45
2022/07/20 05:11:06;;;;;;;5.53;4.70;;;21.20;89.00;;;;;;5044430;28;20210;-47
2022/07/20 05:13:33;;;;;;;9.67;4.93;;;21.20;88.90;;;;;;5062891;28;20206;-46
2022/07/20 05:16:00;;;;;;;5.27;4.87;;;21.30;89.10;;;;;;5059230;28;20218;-50
2022/07/20 05:18:28;;;;;;;5.10;4.57;;;21.30;89.30;;;;;;5063433;28;20608;-47
2022/07/20 05:20:57;;;;;;;6.80;4.73;;;21.40;89.40;;;;;;5060281;28;20201;-50
2022/07/20 05:23:24;;;;;;;5.90;4.33;;;21.50;89.50;;;;;;5062780;28;20198;-44
2022/07/20 05:25:51;;;;;;;5.00;4.37;;;21.50;89.30;;;;;;5043826;28;20236;-51
2022/07/20 05:28:20;;;;;;;6.00;4.53;;;21.60;89.00;;;;;;5061529;28;20186;-46
2022/07/20 05:30:47;;;;;;;6.37;3.90;;;21.70;88.70;;;;;;5061536;28;20310;-49
2022/07/20 05:33:15;;;;;;;7.40;4.63;;;21.70;88.40;;;;;;5061085;28;20933;-49
2022/07/20 05:35:42;;;;;;;5.17;4.67;;;21.80;88.20;;;;;;5062733;28;20218;-49
2022/07/20 05:38:10;;;;;;;7.10;4.40;;;21.90;88.00;;;;;;5059828;28;20705;-52
2022/07/20 05:40:37;;;;;;;5.23;4.73;;;21.90;87.80;;;;;;5063225;28;20207;-46
2022/07/20 05:43:04;;;;;;;8.03;4.83;;;22.00;87.70;;;;;;5044579;28;20206;-44
2022/07/20 05:45:31;;;;;;;8.07;4.17;;;22.10;87.90;;;;;;5062599;28;20260;-49
2022/07/20 05:47:58;;;;;;;4.97;4.47;;;22.20;87.70;;;;;;5059549;28;20202;-50
2022/07/20 05:50:25;;;;;;;5.73;4.60;;;22.30;87.50;;;;;;5056701;28;20199;-44
2022/07/20 05:52:52;;;;;;;8.53;4.30;;;22.40;86.60;;;;;;5060435;28;20198;-47
2022/07/20 05:55:20;;;;;;;5.53;5.00;;;22.50;86.40;;;;;;5061316;28;20299;-44
2022/07/20 05:57:47;;;;;;;8.60;4.20;;;22.50;86.20;;;;;;5045314;28;20202;-46
2022/07/20 06:00:14;;;;;;;7.53;4.13;;;22.70;85.40;;;;;;5060791;28;20194;-50
2022/07/20 06:02:41;;;;;;;6.27;4.43;;;22.80;84.60;;;;;;5062784;28;20209;-49
2022/07/20 06:05:09;;;;;;;9.57;4.57;;;22.90;84.50;;;;;;5059247;28;20195;-45
2022/07/20 06:07:36;;;;;;;5.00;4.60;;;23.00;83.80;;;;;;5063199;28;20198;-46
2022/07/20 06:10:04;;;;;;;9.37;5.03;;;23.00;83.20;;;;;;5059090;28;20217;-46
2022/07/20 06:12:32;;;;;;;6.90;4.27;;;23.10;83.20;;;;;;5045304;28;20314;-47
2022/07/20 06:14:59;;;;;;;5.17;4.67;;;23.10;82.40;;;;;;5058056;28;20201;-47
2022/07/20 06:17:33;;;;;;;6.17;4.80;;;23.10;82.40;;;;;;5063124;28;20199;-51
2022/07/20 06:20:05;;;;;;;5.10;4.50;;;23.20;82.30;;;;;;5052581;28;20194;-45
2022/07/20 06:22:32;;;;;;;4.43;4.03;;;23.30;81.80;;;;;;5057013;28;20224;-50
2022/07/20 06:24:59;;;;;;;8.27;4.20;;;23.40;81.40;;;;;;5058012;28;20207;-49
2022/07/20 06:27:26;;;;;;;8.17;4.07;;;23.60;80.70;;;;;;5045646;28;20569;-49
2022/07/20 06:29:54;;;;;;;5.32;4.82;;;23.70;80.10;;;;;;5058633;28;20206;-46
2022/07/20 06:32:21;;;;;;;8.60;4.72;;;23.80;79.80;;;;;;5061999;28;20218;-45
2022/07/20 06:34:48;;;;;;;6.43;4.30;;;23.90;79.20;;;;;;5060320;28;20211;-49
2022/07/20 06:37:15;;;;;;;7.00;4.22;;;24.00;78.70;;;;;;5054399;28;20207;-48
2022/07/20 06:39:42;;;;;;;4.88;4.10;;;24.10;78.40;;;;;;5055418;28;20211;-49
2022/07/20 06:42:09;;;;;;;7.70;4.60;;;24.20;78.10;;;;;;5036078;28;22031;-46
2022/07/20 06:44:36;;;;;;;5.18;4.75;;;24.20;78.00;;;;;;5061272;28;20613;-48
2022/07/20 06:47:04;;;;;;;5.68;3.95;;;24.40;77.30;;;;;;5058645;28;20215;-47
2022/07/20 06:49:31;;;;;;;7.10;4.28;;;24.50;76.90;;;;;;5061814;28;20198;-45
2022/07/20 06:51:58;;;;;;;7.82;4.53;;;24.60;76.40;;;;;;5058254;28;20217;-48
2022/07/20 06:54:25;;;;;;;8.05;4.72;;;24.70;76.00;;;;;;5061945;28;20191;-46
2022/07/20 06:56:52;;;;;;;5.13;4.55;;;24.90;75.30;;;;;;5062571;28;20574;-44
2022/07/20 06:59:19;;;;;;;7.40;4.70;;;24.90;75.10;;;;;;5047639;28;20623;-44
2022/07/20 07:01:46;;;;;;;5.30;4.38;;;25.00;74.60;;;;;;5064375;28;20205;-49
2022/07/20 07:04:15;;;;;;;6.53;4.60;;;25.10;75.00;;;;;;5063150;28;20186;-47
2022/07/20 07:06:42;;;;;;;5.18;3.97;;;25.20;73.90;;;;;;5064035;28;20301;-46
2022/07/20 07:09:10;;;;;;;7.28;4.85;;;25.30;73.60;;;;;;5062683;28;20191;-45
2022/07/20 07:11:37;;;;;;;8.40;4.32;;;25.40;73.30;;;;;;5065887;28;20206;-51
2022/07/20 07:14:04;;;;;;;5.00;4.57;;;25.60;72.80;;;;;;5044027;28;20198;-46
2022/07/20 07:16:31;;;;;;;9.45;4.55;;;25.70;72.70;;;;;;5065626;28;20218;-50
2022/07/20 07:18:58;;;;;;;6.93;4.28;;;25.80;72.30;;;;;;5062081;28;20648;-45
2022/07/20 07:21:26;;;;;;;5.68;4.78;;;25.90;72.20;;;;;;5065348;28;20206;-46
2022/07/20 07:23:53;;;;;;;5.07;4.65;;;26.00;71.70;;;;;;5062477;28;20203;-47
2022/07/20 07:26:21;;;;;;;4.82;4.32;;;26.00;71.50;;;;;;5064806;28;20246;-45
2022/07/20 07:28:48;;;;;;;4.90;4.50;;;26.10;71.00;;;;;;5055929;28;20198;-48
2022/07/20 07:31:17;;;;;;;4.13;3.80;;;26.30;70.50;;;;;;5056610;28;20238;-44
2022/07/20 07:33:44;;;;;;;6.53;5.00;;;26.40;70.80;;;;;;5064104;28;20201;-47
2022/07/20 07:36:11;;;;;;;4.70;4.28;;;26.50;69.20;;;;;;5062353;28;20294;-50
2022/07/20 07:38:39;;;;;;;7.97;4.55;;;26.70;67.90;;;;;;5065314;28;20207;-47
2022/07/20 07:41:07;;;;;;;4.63;4.18;;;26.90;67.50;;;;;;5061828;28;20198;-46
2022/07/20 07:43:33;;;;;;;6.50;4.18;;;27.00;68.00;;;;;;5064951;28;20647;-45
2022/07/20 07:46:01;;;;;;;9.73;4.72;;;27.00;67.90;;;;;;5044419;28;20221;-50
2022/07/20 07:48:28;;;;;;;7.35;5.45;;;27.10;67.30;;;;;;5065104;28;20199;-48
2022/07/20 07:50:55;;;;;;;7.00;4.65;;;27.20;66.70;;;;;;5061380;28;20199;-47
2022/07/20 07:53:23;;;;;;;4.95;4.43;;;27.40;65.80;;;;;;5064408;28;20207;-46
2022/07/20 07:55:51;;;;;;;6.65;3.88;;;27.50;64.90;;;;;;5062973;28;20234;-51
2022/07/20 07:58:18;;;;;;;4.88;4.43;;;27.60;64.50;;;;;;5063778;28;20190;-49
2022/07/20 08:00:46;;;;;;;7.50;4.35;;;27.80;63.80;;;;;;5046441;28;20229;-48
2022/07/20 08:03:13;;;;;;;7.10;4.55;;;27.80;63.10;;;;;;5062260;28;20947;-46
2022/07/20 08:05:40;;;;;;;4.80;4.10;;;28.00;63.10;;;;;;5064331;28;20245;-49
2022/07/20 08:08:09;;;;;;;6.03;3.90;;;28.10;62.60;;;;;;5060954;28;20183;-44
2022/07/20 08:10:36;;;;;;;8.02;4.10;;;28.20;62.00;;;;;;5064815;28;20202;-45
2022/07/20 08:13:05;;;;;;;7.22;4.25;;;28.40;61.20;;;;;;5060569;28;20253;-46
2022/07/20 08:15:33;;;;;;;4.93;4.20;;;28.40;60.70;;;;;;5046782;28;20233;-46
2022/07/20 08:18:00;;;;;;;6.47;4.10;;;28.50;60.00;;;;;;5052476;28;20205;-50
2022/07/20 08:20:28;;;;;;;4.45;4.05;;;28.70;59.70;;;;;;5060989;28;20222;-50
2022/07/20 08:22:55;;;;;;;5.20;4.50;;;28.90;59.30;;;;;;5064228;28;20205;-52
2022/07/20 08:25:23;;;;;;;6.43;4.10;;;29.00;59.80;;;;;;5061938;28;20250;-48
2022/07/20 08:27:50;;;;;;;4.68;3.95;;;29.10;58.40;;;;;;5062860;28;20197;-45
2022/07/20 08:30:19;;;;;;;5.57;4.00;;;29.20;58.40;;;;;;5058071;28;20667;-45
2022/07/20 08:32:45;;;;;;;7.07;3.88;;;29.30;58.20;;;;;;5052675;28;20249;-44
2022/07/20 08:35:13;;;;;;;7.10;4.05;;;29.40;57.50;;;;;;5063347;28;20582;-49
2022/07/20 08:37:40;;;;;;;4.55;3.78;;;29.60;56.60;;;;;;5060491;28;20202;-46
2022/07/20 08:40:08;;;;;;;4.35;3.80;;;29.70;56.10;;;;;;5064197;28;20217;-46
2022/07/20 08:42:35;;;;;;;5.53;4.05;;;29.70;55.60;;;;;;5059903;28;20190;-49
2022/07/20 08:45:03;;;;;;;6.63;3.95;;;29.80;55.30;;;;;;5063615;28;20209;-49
2022/07/20 08:47:35;;;;;;;7.72;4.18;;;30.00;54.90;;;;;;5042718;28;20210;-47
2022/07/20 08:50:03;;;;;;;5.53;4.18;;;30.10;54.80;;;;;;5061690;28;20209;-50
2022/07/20 08:52:30;;;;;;;6.88;3.90;;;30.20;54.40;;;;;;5060300;28;20679;-50
2022/07/20 08:54:57;;;;;;;9.70;4.40;;;30.30;53.90;;;;;;5063333;28;20195;-45
2022/07/20 08:57:25;;;;;;;6.13;4.20;;;30.30;53.50;;;;;;5061267;28;20198;-45
2022/07/20 08:59:51;;;;;;;7.18;4.22;;;30.40;53.40;;;;;;5062757;28;20205;-48
2022/07/20 09:02:19;;;;;;;4.07;3.75;;;30.60;53.10;;;;;;5044577;28;20202;-47
2022/07/20 09:04:54;;;;;;;4.18;3.88;;;30.70;53.00;;;;;;5060931;28;20198;-51
2022/07/20 09:07:38;;;;;;;5.35;3.85;;;30.80;51.50;;;;;;5060685;28;20195;-46
2022/07/20 09:10:08;;;;;;;6.18;4.30;;;30.90;51.30;;;;;;5057430;28;20674;-47
2022/07/20 09:12:54;;;;;;;5.88;4.40;;;30.90;50.50;;;;;;5053481;28;20214;-47
2022/07/20 09:15:31;;;;;;;9.15;3.85;;;31.10;50.40;;;;;;5061382;28;20228;-45
2022/07/20 09:18:06;;;;;;;6.40;4.43;;;31.20;50.10;;;;;;5045651;28;20246;-45
2022/07/20 09:20:36;;;;;;;5.18;4.13;;;31.30;50.40;;;;;;5059379;28;20423;-44
2022/07/20 09:23:04;;;;;;;4.20;3.80;;;31.40;50.60;;;;;;5063596;28;20203;-46
2022/07/20 09:25:32;;;;;;;4.32;3.92;;;31.40;50.30;;;;;;5059151;28;20222;-51
2022/07/20 09:27:59;;;;;;;4.22;3.80;;;31.50;50.00;;;;;;5063644;28;20222;-49
2022/07/20 09:30:26;;;;;;;5.60;4.20;;;31.60;50.00;;;;;;5060299;28;20293;-47
2022/07/20 09:32:59;;;;;;;4.85;4.30;;;31.70;49.40;;;;;;5045623;28;20301;-51
2022/07/20 09:35:29;;;;;;;4.10;3.70;;;31.90;49.50;;;;;;5059456;28;20288;-49
2022/07/20 09:38:00;;;;;;;5.20;4.00;;;32.00;48.90;;;;;;5063156;28;20221;-50
2022/07/20 09:40:28;;;;;;;4.95;4.45;;;32.10;49.00;;;;;;5053595;28;20551;-52
2022/07/20 09:42:55;;;;;;;4.35;3.90;;;32.00;49.60;;;;;;5056282;28;20689;-50
2022/07/20 09:45:25;;;;;;;5.88;4.35;;;32.20;48.60;;;;;;5060848;28;20219;-50
2022/07/20 09:48:07;;;;;;;6.10;4.18;;;32.20;47.90;;;;;;5055024;28;20203;-50
2022/07/20 09:50:37;;;;;;;6.38;4.20;;;32.20;48.40;;;;;;5041381;28;20206;-50
2022/07/20 09:53:06;;;;;;;4.70;4.07;;;32.40;48.00;;;;;;5058633;28;20218;-46
2022/07/20 09:55:34;;;;;;;10.30;4.32;;;32.60;47.60;;;;;;5058786;28;20210;-50
2022/07/20 09:58:01;;;;;;;5.10;4.03;;;32.70;47.20;;;;;;5063173;28;20605;-50
2022/07/20 10:00:29;;;;;;;4.72;4.30;;;32.70;47.60;;;;;;5059684;28;20201;-48
2022/07/20 10:02:58;;;;;;;5.95;4.13;;;32.80;47.30;;;;;;5062918;28;20213;-52
2022/07/20 10:05:30;;;;;;;5.97;4.07;;;32.90;47.50;;;;;;5042326;28;20225;-49
2022/07/20 10:08:01;;;;;;;4.70;4.30;;;32.90;46.90;;;;;;5062916;28;20203;-50
2022/07/20 10:10:29;;;;;;;6.13;4.53;;;33.00;47.20;;;;;;5059848;28;20260;-47
2022/07/20 10:12:57;;;;;;;5.00;4.30;;;33.10;47.50;;;;;;5062712;28;20218;-50
2022/07/20 10:15:32;;;;;;;4.40;4.10;;;33.20;46.80;;;;;;5059225;28;20272;-45
2022/07/20 10:17:59;;;;;;;6.30;4.57;;;33.30;46.20;;;;;;5062940;28;20198;-48
2022/07/20 10:20:31;;;;;;;4.28;3.85;;;33.30;47.10;;;;;;5042812;28;20252;-50
2022/07/20 10:23:27;;;;;;;4.88;4.47;;;33.50;46.20;;;;;;5062755;28;20755;-45
2022/07/20 10:25:57;;;;;;;4.55;4.15;;;33.50;45.30;;;;;;5062176;28;20237;-44
2022/07/20 10:28:36;;;;;;;4.88;4.38;;;33.70;45.70;;;;;;5060511;28;20285;-45
2022/07/20 10:31:08;;;;;;;5.03;4.15;;;33.80;45.10;;;;;;5064248;28;20252;-44
2022/07/20 10:33:38;;;;;;;4.85;4.45;;;33.90;45.30;;;;;;5062189;28;20206;-51
2022/07/20 10:39:43;;;;;;;4.88;4.07;;;34.20;44.40;;;;;;5064501;28;20191;-45
2022/07/20 10:42:30;;;;;;;4.85;3.88;;;34.10;44.30;;;;;;5066588;28;20194;-44
2022/07/20 10:45:31;;;;;;;6.38;4.75;;;34.20;43.30;;;;;;5064640;28;20578;-48
2022/07/20 10:48:01;;;;;;;5.97;4.55;;;34.20;44.40;;;;;;5065936;28;20201;-48
2022/07/20 10:50:32;;;;;;;5.53;5.03;;;34.50;44.20;;;;;;5038347;28;20218;-47
2022/07/20 10:53:21;;;;;;;5.30;4.80;;;34.50;44.20;;;;;;5065759;28;20687;-45
2022/07/20 10:55:51;;;;;;;9.13;5.70;;;34.50;44.20;;;;;;5065109;28;20242;-45
2022/07/20 10:58:21;;;;;;;6.57;5.18;;;34.60;43.90;;;;;;5063842;28;20573;-48
2022/07/20 11:00:51;;;;;;;5.63;4.60;;;34.60;43.80;;;;;;5065350;28;20199;-43
2022/07/20 11:03:20;;;;;;;5.78;3.95;;;34.70;43.40;;;;;;5063562;28;20690;-50
2022/07/20 11:05:49;;;;;;;4.40;4.10;;;35.00;42.50;;;;;;5048332;28;20222;-45
2022/07/20 11:08:16;;;;;;;4.82;4.25;;;35.00;42.00;;;;;;5063753;28;20199;-47
2022/07/20 11:10:43;;;;;;;4.75;4.30;;;35.10;41.60;;;;;;5064126;28;20930;-46
2022/07/20 11:13:11;;;;;;;5.47;4.50;;;35.20;41.70;;;;;;5064843;28;20222;-48
2022/07/20 11:15:43;;;;;;;8.75;4.28;;;35.30;42.10;;;;;;5062855;28;20207;-46
2022/07/20 11:18:12;;;;;;;4.63;4.22;;;35.40;42.10;;;;;;5064905;28;20297;-47
2022/07/20 11:20:46;;;;;;;7.20;4.45;;;35.50;42.00;;;;;;5061908;28;20187;-51
2022/07/20 11:23:14;;;;;;;5.78;3.92;;;35.50;41.30;;;;;;5044311;28;20243;-49
2022/07/20 11:25:45;;;;;;;5.43;4.25;;;35.60;41.90;;;;;;5063661;28;20967;-47
2022/07/20 11:28:13;;;;;;;5.32;4.15;;;35.70;41.50;;;;;;5058623;28;20562;-48
2022/07/20 11:30:42;;;;;;;10.52;4.35;;;35.80;41.40;;;;;;5061694;28;20205;-49
2022/07/20 11:33:11;;;;;;;5.68;4.00;;;36.00;40.70;;;;;;5064913;28;20590;-51
2022/07/20 11:35:38;;;;;;;6.18;3.97;;;36.00;39.90;;;;;;5062225;28;20249;-52
2022/07/20 11:38:05;;;;;;;4.15;3.50;;;36.00;39.80;;;;;;5048279;28;20281;-45
2022/07/20 11:40:33;;;;;;;3.88;3.53;;;36.30;38.70;;;;;;5061327;28;20194;-51
2022/07/20 11:43:08;;;;;;;4.78;3.40;;;36.30;38.10;;;;;;5064934;28;20210;-51
2022/07/20 11:45:35;;;;;;;6.97;4.53;;;36.30;38.20;;;;;;5060426;28;20931;-47
2022/07/20 11:48:03;;;;;;;4.30;3.88;;;36.30;38.10;;;;;;5092597;28;20198;-49
2022/07/20 11:50:34;;;;;;;4.63;3.50;;;36.30;38.10;;;;;;5061193;28;20190;-50
2022/07/20 11:53:02;;;;;;;6.13;4.32;;;36.30;38.10;;;;;;5047793;28;20211;-51
2022/07/20 11:55:37;;;;;;;4.10;3.65;;;36.50;38.30;;;;;;5060368;28;20214;-48
2022/07/20 11:58:04;;;;;;;7.18;3.72;;;36.60;38.30;;;;;;5065290;28;20893;-47
2022/07/20 12:00:31;;;;;;;4.85;4.22;;;36.60;37.80;;;;;;5060402;28;20194;-49
2022/07/20 12:02:59;;;;;;;4.95;3.67;;;36.70;36.80;;;;;;5064982;28;20194;-46
2022/07/20 12:05:26;;;;;;;4.45;3.40;;;36.80;36.50;;;;;;5093036;28;20233;-47
2022/07/20 12:08:12;;;;;;;4.05;3.60;;;36.90;36.60;;;;;;5064933;28;20684;-51
2022/07/20 12:10:42;;;;;;;7.65;3.25;;;37.00;36.00;;;;;;5051383;28;20199;-49
2022/07/20 12:13:09;;;;;;;11.05;3.60;;;37.20;36.00;;;;;;5064307;28;20275;-47
2022/07/20 12:15:37;;;;;;;4.93;3.50;;;37.30;35.40;;;;;;5061081;28;20218;-51
2022/07/20 12:18:04;;;;;;;4.95;4.00;;;37.20;35.30;;;;;;5064509;28;20203;-48
2022/07/20 12:20:32;;;;;;;4.35;3.78;;;37.40;35.70;;;;;;5060721;28;20802;-50
2022/07/20 12:23:02;;;;;;;5.93;3.63;;;37.50;35.60;;;;;;5063641;28;20229;-47
2022/07/20 12:25:36;;;;;;;4.88;3.75;;;37.50;34.90;;;;;;5042828;28;20526;-51
2022/07/20 12:28:03;;;;;;;3.78;3.47;;;37.40;34.70;;;;;;5064195;28;20199;-50
2022/07/20 12:30:34;;;;;;;6.35;3.80;;;37.60;35.30;;;;;;5060250;28;20891;-50
2022/07/20 12:33:06;;;;;;;8.32;4.25;;;37.60;35.20;;;;;;5096816;28;20237;-49
2022/07/20 12:35:33;;;;;;;5.38;3.55;;;37.70;34.90;;;;;;5060164;28;20226;-50
2022/07/20 12:38:02;;;;;;;4.60;3.85;;;37.80;34.90;;;;;;5064058;28;20198;-51
2022/07/20 12:40:37;;;;;;;6.13;3.35;;;37.90;34.50;;;;;;5042731;28;20823;-49
2022/07/20 12:43:06;;;;;;;4.03;3.65;;;37.90;35.10;;;;;;5058964;28;20198;-52
2022/07/20 12:45:33;;;;;;;5.38;3.50;;;38.10;34.60;;;;;;5092492;28;20969;-51
2022/07/20 12:48:00;;;;;;;7.93;3.80;;;38.30;34.30;;;;;;5064214;28;20202;-48
2022/07/20 12:50:27;;;;;;;4.15;3.40;;;38.40;34.00;;;;;;5059475;28;20847;-51
2022/07/20 12:52:55;;;;;;;4.97;3.50;;;38.40;33.60;;;;;;5063169;28;20227;-50
2022/07/20 12:55:23;;;;;;;3.67;3.38;;;38.40;33.80;;;;;;5046959;28;20614;-47
2022/07/20 12:57:50;;;;;;;4.28;3.42;;;38.50;33.70;;;;;;5061683;28;20198;-48
2022/07/20 13:00:17;;;;;;;5.57;3.72;;;38.90;32.90;;;;;;5061597;28;20198;-46